Terminal Aerodrome Forecast
Issued by NWS Paducah, KY

Home | Current Version | Previous Version | Graphics & Text | Print | Product List | Glossary On
Versions: 1 2 3 4 5 6 7 8 9 10 11 12 13 14 15 16 17 18 19 20 21
000
FTUS43 KPAH 291323 AAB
TAFEVV
TAF AMD
KEVV 291323Z 2913/3012 17007KT P6SM SCT015 BKN050
      TEMPO 2914/2916 BKN015
     FM291600 20010KT P6SM BKN035 BKN100=

USA.gov is the U.S. government's official web portal to all federal, state and local government web resources and services.